createdAt,value
2017-11-11T00:01:41.615Z,7.20
2017-11-11T00:04:10.546Z,6.43
2017-11-11T00:06:42.835Z,7.45
2017-11-11T00:09:11.605Z,8.10
2017-11-11T00:11:40.265Z,6.12
2017-11-11T00:14:09.354Z,5.70
2017-11-11T00:16:38.085Z,5.90
2017-11-11T00:19:08.582Z,5.65
2017-11-11T00:21:37.736Z,9.40
2017-11-11T00:24:06.956Z,8.00
2017-11-11T00:26:35.677Z,5.75
2017-11-11T00:29:05.200Z,6.35
2017-11-11T00:31:33.481Z,5.45
2017-11-11T00:34:02.975Z,6.57
2017-11-11T00:36:31.442Z,6.85
2017-11-11T00:39:00.115Z,8.02
2017-11-11T00:41:28.698Z,9.65
2017-11-11T00:43:57.484Z,7.97
2017-11-11T00:46:25.889Z,7.90
2017-11-11T00:48:54.463Z,8.40
2017-11-11T00:51:22.838Z,7.90
2017-11-11T00:53:51.257Z,11.45
2017-11-11T00:56:20.679Z,8.57
2017-11-11T00:58:49.658Z,7.95
2017-11-11T01:01:18.016Z,8.07
2017-11-11T01:03:47.320Z,7.78
2017-11-11T01:06:16.888Z,8.38
2017-11-11T01:08:45.507Z,8.50
2017-11-11T01:11:14.946Z,9.10
2017-11-11T01:13:43.505Z,7.97
2017-11-11T01:16:12.930Z,11.60
2017-11-11T01:18:42.315Z,7.72
2017-11-11T01:21:11.160Z,7.55
2017-11-11T01:23:39.522Z,7.70
2017-11-11T01:26:08.269Z,7.90
2017-11-11T01:28:36.615Z,7.60
2017-11-11T01:31:05.207Z,7.90
2017-11-11T01:33:34.872Z,8.55
2017-11-11T01:36:03.704Z,7.95
2017-11-11T01:38:33.102Z,8.73
2017-11-11T01:41:02.822Z,8.05
2017-11-11T01:43:31.761Z,8.93
2017-11-11T01:46:01.020Z,15.13
2017-11-11T01:48:30.884Z,12.00
2017-11-11T01:50:59.417Z,8.57
2017-11-11T01:53:28.614Z,8.05
2017-11-11T01:55:58.304Z,7.95
2017-11-11T01:58:27.775Z,7.80
2017-11-11T02:00:56.724Z,8.70
2017-11-11T02:03:25.789Z,7.30
2017-11-11T02:05:55.338Z,7.43
2017-11-11T02:08:24.170Z,7.57
2017-11-11T02:10:53.091Z,8.05
2017-11-11T02:13:21.901Z,8.43
2017-11-11T02:15:50.579Z,8.68
2017-11-11T02:18:19.649Z,7.78
2017-11-11T02:20:49.399Z,7.65
2017-11-11T02:23:18.563Z,7.25
2017-11-11T02:25:47.552Z,7.37
2017-11-11T02:28:17.056Z,7.62
2017-11-11T02:30:46.518Z,7.47
2017-11-11T02:33:15.364Z,6.60
2017-11-11T02:35:44.176Z,7.20
2017-11-11T02:38:12.853Z,7.43
2017-11-11T02:40:41.788Z,7.40
2017-11-11T02:43:11.172Z,6.97
2017-11-11T02:45:39.851Z,6.70
2017-11-11T02:48:08.665Z,6.97
2017-11-11T02:50:37.631Z,6.47
2017-11-11T02:53:06.027Z,7.18
2017-11-11T02:55:34.781Z,7.57
2017-11-11T02:58:03.845Z,6.87
2017-11-11T03:00:32.657Z,6.80
2017-11-11T03:03:01.849Z,7.40
2017-11-11T03:05:30.714Z,7.15
2017-11-11T03:08:00.270Z,7.28
2017-11-11T03:10:29.340Z,7.12
2017-11-11T03:12:57.674Z,7.15
2017-11-11T03:15:26.446Z,6.75
2017-11-11T03:17:55.400Z,6.30
2017-11-11T03:20:24.363Z,6.35
2017-11-11T03:22:53.050Z,6.55
2017-11-11T03:25:22.559Z,6.45
2017-11-11T03:27:51.218Z,6.80
2017-11-11T03:30:20.560Z,6.68
2017-11-11T03:32:49.998Z,7.62
2017-11-11T03:35:18.308Z,7.40
2017-11-11T03:37:47.740Z,6.05
2017-11-11T03:40:16.482Z,7.28
2017-11-11T03:42:45.343Z,5.60
2017-11-11T03:45:14.090Z,5.65
2017-11-11T03:47:43.130Z,5.10
2017-11-11T03:50:11.787Z,7.20
2017-11-11T03:52:40.572Z,5.78
2017-11-11T03:55:09.301Z,6.07
2017-11-11T03:57:38.146Z,5.80
2017-11-11T04:00:06.595Z,5.15
2017-11-11T04:02:36.115Z,5.50
2017-11-11T04:05:04.793Z,6.55
2017-11-11T04:07:34.708Z,6.40
2017-11-11T04:10:04.883Z,6.32
2017-11-11T04:12:33.479Z,6.20
2017-11-11T04:15:03.050Z,5.05
2017-11-11T04:17:31.900Z,6.47
2017-11-11T04:20:01.519Z,6.10
2017-11-11T04:22:30.289Z,6.80
2017-11-11T04:24:59.808Z,6.43
2017-11-11T04:27:29.171Z,6.50
2017-11-11T04:29:59.794Z,4.65
2017-11-11T04:32:28.398Z,5.12
2017-11-11T04:34:56.928Z,2.80
2017-11-11T04:37:25.888Z,2.30
2017-11-11T04:39:55.516Z,2.65
2017-11-11T04:42:24.163Z,2.50
2017-11-11T04:44:53.364Z,2.70
2017-11-11T04:47:22.890Z,3.67
2017-11-11T04:49:51.522Z,3.35
2017-11-11T04:52:20.688Z,3.20
2017-11-11T04:54:49.784Z,3.58
2017-11-11T04:57:18.647Z,3.53
2017-11-11T04:59:47.446Z,2.75
2017-11-11T05:02:16.303Z,2.70
2017-11-11T05:04:45.153Z,2.00
2017-11-11T05:07:14.082Z,2.22
2017-11-11T05:09:43.075Z,2.47
2017-11-11T05:12:12.701Z,1.58
2017-11-11T05:14:42.559Z,1.58
2017-11-11T05:17:11.638Z,1.50
2017-11-11T05:19:40.614Z,1.80
2017-11-11T05:22:09.833Z,1.50
2017-11-11T05:24:38.678Z,17.90
2017-11-11T05:27:07.150Z,2.62
2017-11-11T05:29:37.187Z,2.15
2017-11-11T05:32:05.777Z,2.50
2017-11-11T05:34:34.658Z,2.30
2017-11-11T05:37:06.836Z,2.50
2017-11-11T05:39:35.878Z,2.37
2017-11-11T05:42:08.746Z,2.40
2017-11-11T05:44:37.475Z,2.50
2017-11-11T05:47:15.066Z,2.50
2017-11-11T05:49:46.015Z,2.60
2017-11-11T05:52:25.495Z,2.50
2017-11-11T05:54:54.294Z,2.70
2017-11-11T05:57:22.986Z,3.40
2017-11-11T05:59:51.756Z,3.05
2017-11-11T06:02:20.237Z,3.30
2017-11-11T06:04:48.575Z,4.12
2017-11-11T06:07:18.394Z,4.20
2017-11-11T06:09:48.575Z,4.57
2017-11-11T06:12:21.255Z,3.67
2017-11-11T06:14:49.944Z,3.15
2017-11-11T06:17:19.779Z,3.40
2017-11-11T06:19:51.226Z,3.40
2017-11-11T06:22:20.514Z,2.42
2017-11-11T06:24:49.916Z,3.35
2017-11-11T06:27:20.164Z,3.40
2017-11-11T06:29:49.005Z,3.45
2017-11-11T06:32:18.796Z,4.95
2017-11-11T06:34:47.416Z,4.68
2017-11-11T06:37:18.905Z,6.78
2017-11-11T06:39:47.947Z,5.65
2017-11-11T06:42:16.686Z,6.37
2017-11-11T06:44:46.754Z,5.37
2017-11-11T06:47:16.515Z,5.47
2017-11-11T06:49:45.635Z,5.80
2017-11-11T06:52:19.735Z,6.65
2017-11-11T06:54:51.035Z,5.85
2017-11-11T06:57:21.684Z,6.53
2017-11-11T06:59:50.446Z,6.28
2017-11-11T07:02:19.476Z,6.12
2017-11-11T07:04:51.145Z,18.08
2017-11-11T07:07:19.985Z,6.82
2017-11-11T07:09:51.335Z,7.00
2017-11-11T07:12:20.646Z,7.40
2017-11-11T07:14:52.715Z,6.72
2017-11-11T07:17:22.304Z,8.13
2017-11-11T07:19:51.786Z,8.32
2017-11-11T07:22:20.659Z,6.82
2017-11-11T07:24:49.264Z,8.18
2017-11-11T07:27:17.914Z,7.72
2017-11-11T07:29:46.576Z,4.90
2017-11-11T07:32:15.196Z,4.60
2017-11-11T07:34:43.396Z,6.00
2017-11-11T07:37:13.196Z,4.90
2017-11-11T07:39:41.965Z,5.30
2017-11-11T07:42:10.475Z,4.85
2017-11-11T07:44:43.455Z,3.70
2017-11-11T07:47:14.496Z,4.57
2017-11-11T07:49:43.916Z,3.80
2017-11-11T07:52:14.555Z,3.95
2017-11-11T07:54:44.485Z,3.45
2017-11-11T07:57:13.106Z,3.50
2017-11-11T07:59:41.574Z,4.18
2017-11-11T08:02:09.905Z,3.03
2017-11-11T08:04:42.164Z,2.72
2017-11-11T08:07:11.845Z,2.20
2017-11-11T08:09:40.595Z,2.10
2017-11-11T08:12:08.986Z,2.67
2017-11-11T08:14:37.804Z,3.45
2017-11-11T08:17:07.002Z,2.90
2017-11-11T08:19:36.034Z,3.65
2017-11-11T08:22:05.485Z,4.35
2017-11-11T08:24:34.515Z,3.40
2017-11-11T08:27:05.105Z,3.28
2017-11-11T08:29:33.875Z,3.20
2017-11-11T08:32:02.676Z,4.47
2017-11-11T08:34:31.465Z,2.75
2017-11-11T08:37:00.865Z,2.60
2017-11-11T08:39:29.726Z,3.60
2017-11-11T08:41:58.724Z,4.75
2017-11-11T08:44:27.216Z,4.35
2017-11-11T08:46:55.689Z,3.37
2017-11-11T08:49:24.156Z,3.53
2017-11-11T08:51:52.735Z,2.87
2017-11-11T08:54:22.330Z,5.18
2017-11-11T08:56:51.886Z,3.08
2017-11-11T08:59:21.354Z,3.60
2017-11-11T09:01:50.204Z,4.68
2017-11-11T09:04:19.855Z,4.90
2017-11-11T09:06:48.466Z,5.18
2017-11-11T09:09:17.405Z,4.78
2017-11-11T09:11:47.066Z,4.25
2017-11-11T09:14:16.416Z,3.72
2017-11-11T09:16:45.735Z,4.20
2017-11-11T09:19:14.774Z,4.35
2017-11-11T09:21:43.656Z,4.90
2017-11-11T09:24:12.219Z,4.03
2017-11-11T09:26:40.746Z,3.83
2017-11-11T09:29:09.275Z,5.85
2017-11-11T09:31:37.635Z,5.07
2017-11-11T09:34:07.395Z,6.93
2017-11-11T09:36:36.299Z,6.43
2017-11-11T09:39:05.484Z,6.87
2017-11-11T09:41:34.884Z,5.60
2017-11-11T09:44:03.932Z,6.65
2017-11-11T09:46:32.656Z,5.95
2017-11-11T09:49:01.256Z,6.32
2017-11-11T09:51:29.846Z,6.57
2017-11-11T09:53:58.755Z,5.32
2017-11-11T09:56:28.246Z,8.18
2017-11-11T09:58:56.825Z,8.27
2017-11-11T10:01:25.616Z,4.30
2017-11-11T10:03:54.735Z,4.82
2017-11-11T10:06:24.224Z,4.80
2017-11-11T10:08:53.905Z,5.00
2017-11-11T10:11:24.847Z,5.35
2017-11-11T10:13:53.784Z,6.43
2017-11-11T10:16:22.785Z,5.95
2017-11-11T10:18:52.606Z,5.07
2017-11-11T10:21:21.325Z,6.05
2017-11-11T10:23:50.265Z,6.00
2017-11-11T10:26:19.066Z,6.53
2017-11-11T10:28:48.302Z,7.65
2017-11-11T10:31:17.454Z,7.37
2017-11-11T10:33:46.595Z,8.32
2017-11-11T10:36:14.851Z,9.45
2017-11-11T10:38:43.554Z,7.55
2017-11-11T10:41:12.485Z,9.57
2017-11-11T10:43:41.157Z,8.07
2017-11-11T10:46:10.055Z,7.80
2017-11-11T10:48:39.355Z,8.35
2017-11-11T10:51:08.444Z,9.20
2017-11-11T10:53:38.728Z,10.43
2017-11-11T10:56:07.384Z,10.50
2017-11-11T10:58:36.451Z,9.85
2017-11-11T11:01:06.436Z,9.20
2017-11-11T11:03:35.035Z,8.57
2017-11-11T11:06:04.545Z,9.52
2017-11-11T11:08:35.255Z,9.23
2017-11-11T11:11:04.358Z,12.77
2017-11-11T11:13:33.406Z,9.45
2017-11-11T11:16:05.946Z,9.75
2017-11-11T11:18:35.876Z,9.43
2017-11-11T11:21:05.486Z,7.97
2017-11-11T11:23:34.995Z,7.85
2017-11-11T11:26:03.995Z,8.20
2017-11-11T11:28:32.486Z,10.18
2017-11-11T11:31:01.475Z,15.27
2017-11-11T11:33:30.055Z,8.25
2017-11-11T11:35:59.008Z,7.65
2017-11-11T11:38:28.476Z,8.43
2017-11-11T11:40:57.036Z,7.03
2017-11-11T11:43:27.189Z,6.55
2017-11-11T11:45:55.896Z,6.95
2017-11-11T11:48:25.851Z,8.90
2017-11-11T11:50:54.644Z,8.35
2017-11-11T11:53:23.154Z,7.55
2017-11-11T11:55:52.396Z,9.05
2017-11-11T11:58:20.945Z,7.90
2017-11-11T12:00:49.814Z,8.30
2017-11-11T12:03:18.929Z,8.95
2017-11-11T12:05:48.410Z,8.82
2017-11-11T12:08:17.101Z,9.48
2017-11-11T12:10:46.025Z,9.27
2017-11-11T12:13:15.826Z,8.93
2017-11-11T12:15:44.334Z,7.72
2017-11-11T12:18:13.585Z,8.30
2017-11-11T12:20:42.625Z,13.57
2017-11-11T12:23:11.712Z,9.02
2017-11-11T12:25:41.766Z,9.65
2017-11-11T12:28:11.135Z,8.32
2017-11-11T12:30:41.264Z,8.15
2017-11-11T12:33:11.535Z,9.55
2017-11-11T12:35:41.465Z,9.18
2017-11-11T12:38:10.986Z,11.60
2017-11-11T12:40:41.826Z,9.30
2017-11-11T12:43:11.316Z,9.00
2017-11-11T12:45:40.198Z,8.32
2017-11-11T12:48:09.116Z,9.05
2017-11-11T12:50:40.025Z,7.82
2017-11-11T12:53:08.463Z,10.95
2017-11-11T12:55:38.798Z,7.00
2017-11-11T12:58:08.194Z,6.78
2017-11-11T13:00:51.061Z,8.30
2017-11-11T13:03:22.396Z,8.20
2017-11-11T13:05:51.084Z,8.60
2017-11-11T13:08:20.537Z,8.55
2017-11-11T13:10:49.117Z,9.15
2017-11-11T13:13:18.044Z,6.53
2017-11-11T13:15:47.446Z,7.90
2017-11-11T13:18:16.084Z,7.00
2017-11-11T13:20:44.645Z,7.50
2017-11-11T13:23:15.266Z,13.88
2017-11-11T13:25:48.487Z,9.18
2017-11-11T13:28:20.355Z,7.05
2017-11-11T13:30:49.656Z,9.60
2017-11-11T13:33:20.957Z,10.65
2017-11-11T13:35:49.645Z,10.90
2017-11-11T13:38:19.366Z,9.85
2017-11-11T13:40:49.356Z,11.20
2017-11-11T13:43:18.126Z,6.70
2017-11-11T13:45:46.864Z,11.18
2017-11-11T13:48:20.240Z,10.65
2017-11-11T13:50:49.025Z,9.57
2017-11-11T13:53:17.794Z,10.35
2017-11-11T13:55:48.144Z,7.40
2017-11-11T13:58:19.375Z,8.52
2017-11-11T14:00:49.114Z,7.20
2017-11-11T14:03:18.734Z,7.37
2017-11-11T14:05:47.256Z,6.53
2017-11-11T14:08:19.162Z,7.03
2017-11-11T14:10:48.766Z,8.80
2017-11-11T14:13:17.285Z,8.75
2017-11-11T14:15:45.976Z,8.18
2017-11-11T14:18:14.514Z,14.38
2017-11-11T14:20:43.836Z,8.15
2017-11-11T14:23:13.896Z,8.90
2017-11-11T14:25:45.374Z,8.15
2017-11-11T14:28:15.785Z,6.90
2017-11-11T14:30:45.385Z,8.90
2017-11-11T14:33:16.435Z,8.00
2017-11-11T14:35:45.766Z,8.18
2017-11-11T14:38:14.148Z,8.23
2017-11-11T14:40:45.365Z,8.60
2017-11-11T14:43:14.824Z,7.60
2017-11-11T14:45:46.426Z,11.35
2017-11-11T14:48:16.004Z,9.40
2017-11-11T14:50:46.235Z,7.15
2017-11-11T14:53:19.514Z,9.60
2017-11-11T14:55:50.687Z,9.10
2017-11-11T14:58:20.165Z,9.82
2017-11-11T15:00:48.914Z,8.27
2017-11-11T15:03:19.075Z,8.75
2017-11-11T15:05:49.535Z,9.68
2017-11-11T15:08:19.105Z,8.77
2017-11-11T15:10:47.837Z,11.68
2017-11-11T15:13:20.437Z,8.27
2017-11-11T15:15:53.235Z,10.32
2017-11-11T15:18:24.770Z,9.13
2017-11-11T15:20:53.404Z,8.73
2017-11-11T15:23:22.946Z,8.88
2017-11-11T15:25:55.545Z,9.23
2017-11-11T15:28:24.155Z,8.20
2017-11-11T15:30:53.476Z,8.23
2017-11-11T15:33:23.545Z,10.20
2017-11-11T15:35:52.684Z,9.02
2017-11-11T15:38:22.235Z,9.13
2017-11-11T15:40:51.239Z,10.80
2017-11-11T15:43:20.257Z,9.00
2017-11-11T15:45:49.785Z,8.70
2017-11-11T15:48:20.676Z,9.38
2017-11-11T15:50:50.405Z,10.07
2017-11-11T15:53:19.051Z,7.70
2017-11-11T15:55:51.875Z,9.15
2017-11-11T15:58:23.594Z,9.00
2017-11-11T16:00:54.624Z,8.90
2017-11-11T16:03:24.046Z,8.35
2017-11-11T16:05:53.655Z,8.68
2017-11-11T16:08:27.355Z,9.43
2017-11-11T16:10:56.299Z,8.25
2017-11-11T16:13:25.235Z,7.25
2017-11-11T16:15:54.185Z,7.70
2017-11-11T16:18:22.786Z,7.40
2017-11-11T16:20:53.009Z,18.33
2017-11-11T16:23:21.371Z,7.85
2017-11-11T16:25:51.481Z,7.00
2017-11-11T16:28:21.045Z,8.20
2017-11-11T16:30:58.712Z,6.90
2017-11-11T16:33:29.344Z,5.80
2017-11-11T16:35:58.215Z,6.85
2017-11-11T16:38:26.896Z,6.80
2017-11-11T16:40:56.216Z,7.80
2017-11-11T16:43:25.065Z,7.72
2017-11-11T16:45:54.685Z,7.30
2017-11-11T16:48:24.265Z,7.37
2017-11-11T16:50:53.116Z,7.20
2017-11-11T16:53:22.016Z,7.55
2017-11-11T16:55:50.664Z,8.40
2017-11-11T16:58:20.655Z,9.55
2017-11-11T17:00:49.545Z,11.63
2017-11-11T17:03:20.606Z,8.35
2017-11-11T17:05:51.790Z,10.73
2017-11-11T17:08:20.566Z,9.02
2017-11-11T17:10:51.106Z,7.22
2017-11-11T17:13:21.195Z,6.60
2017-11-11T17:15:53.794Z,6.90
2017-11-11T17:18:25.925Z,7.18
2017-11-11T17:20:56.285Z,5.62
2017-11-11T17:23:24.856Z,5.78
2017-11-11T17:25:53.855Z,6.10
2017-11-11T17:28:22.494Z,7.68
2017-11-11T17:30:52.015Z,5.90
2017-11-11T17:33:21.841Z,5.30
2017-11-11T17:35:52.156Z,6.10
2017-11-11T17:38:21.705Z,6.72
2017-11-11T17:40:50.285Z,6.90
2017-11-11T17:43:23.986Z,7.35
2017-11-11T17:45:52.856Z,5.62
2017-11-11T17:48:21.125Z,5.53
2017-11-11T17:50:51.516Z,4.55
2017-11-11T17:53:20.521Z,4.45
2017-11-11T17:55:49.955Z,4.80
2017-11-11T17:58:18.929Z,5.50
2017-11-11T18:00:47.755Z,5.55
2017-11-11T18:03:18.494Z,5.65
2017-11-11T18:05:53.015Z,5.70
2017-11-11T18:08:25.217Z,4.82
2017-11-11T18:10:54.636Z,5.95
2017-11-11T18:13:23.896Z,6.22
2017-11-11T18:15:52.666Z,7.60
2017-11-11T18:18:21.766Z,9.45
2017-11-11T18:20:52.103Z,6.80
2017-11-11T18:23:20.855Z,6.95
2017-11-11T18:25:51.305Z,5.10
2017-11-11T18:28:29.444Z,4.05
2017-11-11T18:31:00.598Z,7.50
2017-11-11T18:33:31.141Z,4.00
2017-11-11T18:35:59.785Z,4.90
2017-11-11T18:38:32.634Z,3.33
2017-11-11T18:41:03.236Z,3.80
2017-11-11T18:43:43.784Z,3.87
2017-11-11T18:46:14.707Z,4.47
2017-11-11T18:48:43.095Z,4.47
2017-11-11T18:51:12.335Z,3.85
2017-11-11T18:53:41.136Z,5.32
2017-11-11T18:56:10.286Z,4.20
2017-11-11T18:58:39.105Z,3.65
2017-11-11T19:01:07.628Z,5.60
2017-11-11T19:03:36.095Z,4.62
2017-11-11T19:06:04.582Z,4.43
2017-11-11T19:08:33.335Z,3.85
2017-11-11T19:11:02.800Z,4.30
2017-11-11T19:13:34.745Z,4.05
2017-11-11T19:16:03.405Z,4.15
2017-11-11T19:18:32.469Z,4.43
2017-11-11T19:21:01.646Z,5.80
2017-11-11T19:23:34.408Z,3.95
2017-11-11T19:26:04.005Z,3.85
2017-11-11T19:28:41.084Z,3.85
2017-11-11T19:31:15.157Z,4.03
2017-11-11T19:33:47.455Z,3.90
2017-11-11T19:36:19.274Z,6.35
2017-11-11T19:38:48.011Z,3.55
2017-11-11T19:41:17.454Z,3.62
2017-11-11T19:43:50.325Z,6.12
2017-11-11T19:46:19.134Z,4.03
2017-11-11T19:48:47.945Z,4.50
2017-11-11T19:51:19.446Z,4.05
2017-11-11T19:53:48.336Z,3.60
2017-11-11T19:56:17.275Z,3.72
2017-11-11T19:58:45.954Z,4.28
2017-11-11T20:01:18.215Z,4.05
2017-11-11T20:03:49.854Z,4.93
2017-11-11T20:06:18.614Z,4.57
2017-11-11T20:08:48.315Z,4.25
2017-11-11T20:11:17.195Z,4.22
2017-11-11T20:13:45.964Z,3.25
2017-11-11T20:16:18.466Z,4.00
2017-11-11T20:18:49.586Z,3.15
2017-11-11T20:21:19.036Z,3.72
2017-11-11T20:23:49.315Z,3.55
2017-11-11T20:26:18.075Z,8.20
2017-11-11T20:28:48.287Z,3.22
2017-11-11T20:31:18.244Z,2.47
2017-11-11T20:33:46.865Z,3.03
2017-11-11T20:36:15.455Z,2.97
2017-11-11T20:38:44.474Z,2.80
2017-11-11T20:41:19.315Z,2.78
2017-11-11T20:43:48.046Z,3.33
2017-11-11T20:46:18.394Z,3.00
2017-11-11T20:48:48.485Z,3.42
2017-11-11T20:51:17.996Z,3.00
2017-11-11T20:53:47.615Z,4.20
2017-11-11T20:56:16.375Z,2.50
2017-11-11T20:58:44.925Z,2.95
2017-11-11T21:01:13.576Z,5.95
2017-11-11T21:03:42.479Z,5.50
2017-11-11T21:06:13.018Z,4.20
2017-11-11T21:08:45.504Z,3.85
2017-11-11T21:11:14.135Z,3.58
2017-11-11T21:13:45.576Z,3.35
2017-11-11T21:16:14.016Z,3.10
2017-11-11T21:18:43.656Z,2.20
2017-11-11T21:21:14.673Z,2.40
2017-11-11T21:23:44.086Z,2.40
2017-11-11T21:26:14.613Z,2.40
2017-11-11T21:28:44.326Z,3.70
2017-11-11T21:31:13.635Z,3.33
2017-11-11T21:33:44.818Z,2.97
2017-11-11T21:36:13.816Z,2.70
2017-11-11T21:38:45.016Z,3.60
2017-11-11T21:41:16.615Z,2.70
2017-11-11T21:43:47.496Z,2.75
2017-11-11T21:46:16.304Z,2.62
2017-11-11T21:48:49.934Z,3.00
2017-11-11T21:51:18.745Z,2.85
2017-11-11T21:53:48.125Z,2.72
2017-11-11T21:56:18.386Z,2.45
2017-11-11T21:58:50.505Z,2.58
2017-11-11T22:01:22.135Z,2.80
2017-11-11T22:03:53.326Z,3.35
2017-11-11T22:09:02.236Z,2.45
2017-11-11T22:11:30.966Z,3.20
2017-11-11T22:13:59.615Z,3.65
2017-11-11T22:16:28.226Z,2.75
2017-11-11T22:18:56.825Z,2.72
2017-11-11T22:21:25.580Z,2.40
2017-11-11T22:23:55.225Z,2.53
2017-11-11T22:26:27.634Z,2.62
2017-11-11T22:28:56.484Z,3.00
2017-11-11T22:31:31.290Z,2.92
2017-11-11T22:33:59.945Z,2.47
2017-11-11T22:36:31.126Z,2.50
2017-11-11T22:39:00.015Z,2.33
2017-11-11T22:41:29.885Z,2.45
2017-11-11T22:43:59.231Z,2.15
2017-11-11T22:46:29.577Z,2.15
2017-11-11T22:48:58.255Z,2.22
2017-11-11T22:51:28.424Z,2.00
2017-11-11T22:53:59.796Z,2.30
2017-11-11T22:56:31.736Z,1.80
2017-11-11T22:59:00.515Z,2.05
2017-11-11T23:01:38.046Z,2.20
2017-11-11T23:04:07.805Z,1.62
2017-11-11T23:06:36.576Z,2.00
2017-11-11T23:09:08.056Z,2.40
2017-11-11T23:11:39.694Z,1.80
2017-11-11T23:14:09.774Z,1.77
2017-11-11T23:16:38.465Z,2.10
2017-11-11T23:19:09.966Z,2.00
2017-11-11T23:21:38.865Z,3.40
2017-11-11T23:24:10.455Z,2.12
2017-11-11T23:26:39.854Z,2.05
2017-11-11T23:29:12.005Z,2.20
2017-11-11T23:31:44.305Z,2.03
2017-11-11T23:34:16.038Z,8.65
2017-11-11T23:36:47.296Z,2.05
2017-11-11T23:39:18.054Z,2.30
2017-11-11T23:41:49.006Z,2.08
2017-11-11T23:44:20.315Z,2.30
2017-11-11T23:46:49.204Z,1.98
2017-11-11T23:49:21.065Z,2.70
2017-11-11T23:51:49.725Z,2.15
2017-11-11T23:54:26.644Z,2.15
2017-11-11T23:56:56.125Z,1.95
2017-11-11T23:59:27.607Z,2.00
